Terminal Aerodrome Forecast
Issued by NWS Binghamton, NY

Home | Current Version | Previous Version | Text Only | Print | Product List | Glossary On
Versions: 1 2 3 4 5 6 7 8 9 10 11 12 13 14 15 16 17 18 19 20
000
FTUS41 KBGM 261700
TAFAVP
TAF
KAVP 261738Z 2618/2718 VRB06KT 1/4SM +SN OVC004
     FM262000 36008KT 1/2SM SN OVC004
     FM262300 32008KT 3/4SM -SN OVC018
     FM270600 VRB03KT P6SM -SHSN OVC030
     FM271300 34004KT P6SM -SHSN OVC035=

USA.gov is the U.S. government's official web portal to all federal, state and local government web resources and services.